Terminal Aerodrome Forecast
Issued by NWS

Home | Current Version | Previous Version | Text Only | Print | Product List | Glossary On
Versions: 1 2 3 4 5 6 7 8 9 10 11 12 13 14 15 16 17 18 19 20
000
FTUS44 KEWX 291900 AAA
TAFSSF
TAF AMD
KSSF 291951Z 2920/3018 13005KT P6SM SCT025
     FM292100 07005KT P6SM FEW030 SCT100
     FM300100 04007KT P6SM SCT100 SCT250
     FM300300 03013KT P6SM SCT030 BKN100
     FM301300 02011KT P6SM BKN025 OVC100=

USA.gov is the U.S. government's official web portal to all federal, state and local government web resources and services.